Time;durP1;ratioP1;P1;durP2;ratioP2;P2;SDS_P1;SDS_P2;PMS_P1;PMS_P2;Temp;Humidity;BMP_temperature;BMP_pressure;BME280_temperature;BME280_humidity;BME280_pressure;Samples;Min_cycle;Max_cycle;Signal;HPM_P1;HPM_P2
2021/09/30 00:00:17;;;;;;;4.85;2.70;;;;;;;;;;5000637;28;20037;-84
2021/09/30 00:02:42;;;;;;;5.90;2.75;;;;;;;;;;5018094;28;20026;-81
2021/09/30 00:05:09;;;;;;;6.32;2.92;;;;;;;;;;5017580;28;20036;-84
2021/09/30 00:07:35;;;;;;;5.15;2.65;;;;;;;;;;4999566;28;20027;-85
2021/09/30 00:10:01;;;;;;;5.70;2.80;;;;;;;;;;5002533;28;20030;-85
2021/09/30 00:12:30;;;;;;;6.32;2.83;;;;;;;;;;5014712;28;20049;-85
2021/09/30 00:15:06;;;;;;;6.53;2.85;;;;;;;;;;5031249;28;20033;-81
2021/09/30 00:34:18;;;;;;;5.32;2.28;;;;;;;;;;5030362;28;20508;-82
2021/09/30 00:42:10;;;;;;;5.00;2.20;;;;;;;;;;5017976;28;20031;-85
2021/09/30 00:52:38;;;;;;;7.25;2.63;;;;;;;;;;5017803;28;20076;-81
2021/09/30 01:18:45;;;;;;;7.78;3.08;;;;;;;;;;5023738;28;20044;-82
2021/09/30 01:45:46;;;;;;;6.03;2.40;;;;;;;;;;5034040;28;20041;-84
2021/09/30 01:46:27;;;;;;;7.40;2.50;;;;;;;;;;5036566;28;20051;-82
2021/09/30 02:19:40;;;;;;;5.82;2.35;;;;;;;;;;5034835;28;20044;-81
2021/09/30 02:58:15;;;;;;;7.03;2.38;;;;;;;;;;5038203;28;20048;-83
2021/09/30 03:00:42;;;;;;;7.97;2.40;;;;;;;;;;5023878;28;20037;-84
2021/09/30 03:03:10;;;;;;;7.50;2.33;;;;;;;;;;5023232;28;20040;-85
2021/09/30 03:05:36;;;;;;;8.10;2.95;;;;;;;;;;5018545;28;20175;-85
2021/09/30 03:08:02;;;;;;;7.68;2.60;;;;;;;;;;5021291;28;20061;-84
2021/09/30 03:10:28;;;;;;;8.15;2.88;;;;;;;;;;5016830;28;20495;-85
2021/09/30 03:12:56;;;;;;;8.23;2.58;;;;;;;;;;5018110;28;20403;-83
2021/09/30 03:18:00;;;;;;;8.48;2.88;;;;;;;;;;5040631;28;20433;-85
2021/09/30 03:23:00;;;;;;;;;;;;;;;;;;5032655;28;20485;-82
2021/09/30 03:25:27;;;;;;;7.60;2.65;;;;;;;;;;5014700;28;19913;-82
2021/09/30 03:27:54;;;;;;;7.00;2.60;;;;;;;;;;5038895;28;20071;-85
2021/09/30 03:30:23;;;;;;;6.30;2.40;;;;;;;;;;5001702;28;20076;-85
2021/09/30 03:32:50;;;;;;;7.07;2.42;;;;;;;;;;4998790;28;20030;-86
2021/09/30 03:35:16;;;;;;;7.22;2.60;;;;;;;;;;5033971;28;20508;-85
2021/09/30 03:37:41;;;;;;;8.93;2.50;;;;;;;;;;5022223;28;20033;-84
2021/09/30 03:40:07;;;;;;;8.45;2.67;;;;;;;;;;5015100;28;20059;-85
2021/09/30 03:42:33;;;;;;;6.90;2.60;;;;;;;;;;5017996;28;20033;-85
2021/09/30 03:44:58;;;;;;;5.90;2.42;;;;;;;;;;5002503;28;20038;-86
2021/09/30 03:47:23;;;;;;;8.40;2.50;;;;;;;;;;5032141;28;20036;-84
2021/09/30 03:49:51;;;;;;;7.05;2.83;;;;;;;;;;5006142;28;20147;-82
2021/09/30 03:52:31;;;;;;;8.00;2.83;;;;;;;;;;5019289;28;20592;-82
2021/09/30 03:57:51;;;;;;;6.20;2.45;;;;;;;;;;5021807;28;20037;-85
2021/09/30 04:00:17;;;;;;;7.78;2.85;;;;;;;;;;5016968;28;20022;-86
2021/09/30 04:02:43;;;;;;;7.45;2.85;;;;;;;;;;5018409;28;20041;-85
2021/09/30 04:05:10;;;;;;;7.13;3.05;;;;;;;;;;5013240;28;20121;-85
2021/09/30 04:07:35;;;;;;;7.05;2.60;;;;;;;;;;4986628;28;20083;-83
2021/09/30 04:10:00;;;;;;;7.25;2.80;;;;;;;;;;4999247;28;20481;-85
2021/09/30 04:12:26;;;;;;;6.05;2.72;;;;;;;;;;5018226;28;20037;-85
2021/09/30 04:14:52;;;;;;;9.00;3.00;;;;;;;;;;5021887;28;20033;-83
2021/09/30 04:17:17;;;;;;;6.70;2.78;;;;;;;;;;4985693;28;20133;-82
2021/09/30 04:19:43;;;;;;;9.05;2.83;;;;;;;;;;5035846;28;20108;-85
2021/09/30 04:22:08;;;;;;;9.40;2.92;;;;;;;;;;5022529;28;20036;-84
2021/09/30 04:24:34;;;;;;;7.70;2.45;;;;;;;;;;5016207;28;20030;-83
2021/09/30 04:26:59;;;;;;;11.93;3.38;;;;;;;;;;5000658;28;20027;-85
2021/09/30 04:29:25;;;;;;;8.20;2.60;;;;;;;;;;5023606;28;20041;-82
2021/09/30 04:31:50;;;;;;;6.82;2.55;;;;;;;;;;4999060;28;20519;-81
2021/09/30 04:34:16;;;;;;;4.72;2.72;;;;;;;;;;5001935;28;20392;-84
2021/09/30 04:36:42;;;;;;;7.20;2.97;;;;;;;;;;4997049;28;20464;-84
2021/09/30 04:39:08;;;;;;;6.18;2.72;;;;;;;;;;5010570;28;20021;-86
2021/09/30 04:41:34;;;;;;;10.00;3.10;;;;;;;;;;5015917;28;20052;-83
2021/09/30 04:43:59;;;;;;;7.65;3.08;;;;;;;;;;5001637;28;20026;-85
2021/09/30 04:46:25;;;;;;;12.32;3.15;;;;;;;;;;5033861;28;20415;-85
2021/09/30 04:48:51;;;;;;;6.82;2.90;;;;;;;;;;5023878;28;20492;-85
2021/09/30 04:51:17;;;;;;;5.60;2.45;;;;;;;;;;5026626;28;20119;-82
2021/09/30 04:53:43;;;;;;;8.52;3.10;;;;;;;;;;5012644;28;20075;-82
2021/09/30 04:56:11;;;;;;;10.68;2.88;;;;;;;;;;5000287;28;20037;-85
2021/09/30 04:58:36;;;;;;;8.75;2.75;;;;;;;;;;5017649;28;20480;-85
2021/09/30 05:01:03;;;;;;;6.78;2.70;;;;;;;;;;5019107;28;20025;-85
2021/09/30 05:03:28;;;;;;;5.97;2.60;;;;;;;;;;5001534;28;20037;-82
2021/09/30 05:05:54;;;;;;;6.20;2.70;;;;;;;;;;5006463;28;20026;-82
2021/09/30 05:08:19;;;;;;;8.32;3.00;;;;;;;;;;5033148;28;20164;-82
2021/09/30 05:10:46;;;;;;;9.40;2.60;;;;;;;;;;5014163;28;20040;-85
2021/09/30 05:13:22;;;;;;;8.77;2.80;;;;;;;;;;5017559;28;20049;-85
2021/09/30 05:15:48;;;;;;;5.82;2.60;;;;;;;;;;5002169;28;20037;-82
2021/09/30 05:18:13;;;;;;;6.18;2.67;;;;;;;;;;5052296;28;20029;-84
2021/09/30 05:20:39;;;;;;;7.40;2.53;;;;;;;;;;4999411;28;20484;-82
2021/09/30 05:23:05;;;;;;;7.45;2.58;;;;;;;;;;5008219;28;20079;-82
2021/09/30 05:25:32;;;;;;;5.95;2.35;;;;;;;;;;5003751;28;20029;-85
2021/09/30 05:27:57;;;;;;;7.18;2.88;;;;;;;;;;5041289;28;20281;-82
2021/09/30 05:30:23;;;;;;;5.82;2.50;;;;;;;;;;5033683;28;20033;-85
2021/09/30 05:32:50;;;;;;;8.38;2.67;;;;;;;;;;5014337;28;20033;-84
2021/09/30 05:35:16;;;;;;;13.13;2.70;;;;;;;;;;5038685;28;20032;-81
2021/09/30 05:37:42;;;;;;;7.80;2.42;;;;;;;;;;5037973;28;20083;-85
2021/09/30 05:40:13;;;;;;;6.20;2.75;;;;;;;;;;5004620;28;20029;-83
2021/09/30 05:42:39;;;;;;;8.73;2.70;;;;;;;;;;5019559;28;20088;-84
2021/09/30 05:45:07;;;;;;;8.57;2.70;;;;;;;;;;5026897;28;20046;-82
2021/09/30 05:47:32;;;;;;;12.98;2.78;;;;;;;;;;5021268;28;20029;-82
2021/09/30 05:49:58;;;;;;;7.45;2.70;;;;;;;;;;5003684;28;20400;-82
2021/09/30 05:52:23;;;;;;;8.90;2.90;;;;;;;;;;5016432;28;20057;-82
2021/09/30 05:54:50;;;;;;;7.13;2.70;;;;;;;;;;5016480;28;20121;-85
2021/09/30 05:57:16;;;;;;;10.23;2.67;;;;;;;;;;5013762;28;20061;-82
2021/09/30 05:59:41;;;;;;;7.20;2.67;;;;;;;;;;5020995;28;20029;-85
2021/09/30 06:14:48;;;;;;;9.13;2.72;;;;;;;;;;5034518;28;20079;-82
2021/09/30 06:17:15;;;;;;;6.45;3.10;;;;;;;;;;5002347;28;20038;-82
2021/09/30 06:19:41;;;;;;;8.27;2.60;;;;;;;;;;5019852;28;20041;-84
2021/09/30 06:22:07;;;;;;;6.10;2.65;;;;;;;;;;4994525;28;20036;-82
2021/09/30 06:24:34;;;;;;;7.88;2.65;;;;;;;;;;5026879;28;20038;-82
2021/09/30 06:27:01;;;;;;;6.82;2.40;;;;;;;;;;4987772;28;20029;-82
2021/09/30 06:29:27;;;;;;;6.28;2.55;;;;;;;;;;5002589;28;20033;-84
2021/09/30 06:31:52;;;;;;;6.90;2.70;;;;;;;;;;5019551;28;20110;-82
2021/09/30 06:34:18;;;;;;;5.15;2.50;;;;;;;;;;5006041;28;20040;-83
2021/09/30 06:36:44;;;;;;;9.38;3.05;;;;;;;;;;5014023;28;20140;-84
2021/09/30 06:39:09;;;;;;;7.78;2.40;;;;;;;;;;5032390;28;20032;-84
2021/09/30 06:41:35;;;;;;;5.63;2.30;;;;;;;;;;4995943;28;20079;-82
2021/09/30 06:44:00;;;;;;;8.43;2.60;;;;;;;;;;5031335;28;20041;-85
2021/09/30 06:46:25;;;;;;;8.02;2.60;;;;;;;;;;5022460;28;20029;-82
2021/09/30 06:48:51;;;;;;;6.38;2.20;;;;;;;;;;5003789;28;21812;-85
2021/09/30 06:51:17;;;;;;;9.55;3.38;;;;;;;;;;4985049;28;20060;-82
2021/09/30 06:53:43;;;;;;;5.47;2.60;;;;;;;;;;5019236;28;20037;-84
2021/09/30 06:56:11;;;;;;;6.95;2.55;;;;;;;;;;5032267;28;20036;-84
2021/09/30 06:58:42;;;;;;;6.63;2.78;;;;;;;;;;5000833;28;20029;-84
2021/09/30 07:01:12;;;;;;;6.68;2.65;;;;;;;;;;5001974;28;20052;-85
2021/09/30 07:03:38;;;;;;;8.15;2.65;;;;;;;;;;5015265;28;20504;-84
2021/09/30 07:06:04;;;;;;;9.20;2.78;;;;;;;;;;5016984;28;20034;-84
2021/09/30 07:08:30;;;;;;;7.22;2.53;;;;;;;;;;4999603;28;20041;-82
2021/09/30 07:10:55;;;;;;;6.10;2.70;;;;;;;;;;5022298;28;20028;-81
2021/09/30 07:13:21;;;;;;;10.35;3.50;;;;;;;;;;5019852;28;20057;-82
2021/09/30 07:15:48;;;;;;;5.53;2.30;;;;;;;;;;5017641;28;20116;-85
2021/09/30 07:18:18;;;;;;;7.60;2.85;;;;;;;;;;5019289;28;20057;-84
2021/09/30 07:20:48;;;;;;;7.03;2.40;;;;;;;;;;5044217;28;20042;-82
2021/09/30 07:23:13;;;;;;;6.68;2.42;;;;;;;;;;5018758;28;20075;-82
2021/09/30 07:25:39;;;;;;;8.40;2.72;;;;;;;;;;5030679;28;20037;-85
2021/09/30 07:28:05;;;;;;;8.45;2.95;;;;;;;;;;5000782;28;20033;-85
2021/09/30 07:30:32;;;;;;;6.90;2.45;;;;;;;;;;5015551;28;20044;-82
2021/09/30 07:32:58;;;;;;;5.60;2.58;;;;;;;;;;5029661;28;20025;-82
2021/09/30 07:35:25;;;;;;;7.40;3.03;;;;;;;;;;5030511;28;20029;-84
2021/09/30 07:37:52;;;;;;;6.70;2.45;;;;;;;;;;5011678;28;20037;-85
2021/09/30 07:40:17;;;;;;;4.85;2.40;;;;;;;;;;5014327;28;20079;-82
2021/09/30 07:42:43;;;;;;;6.97;2.80;;;;;;;;;;5030723;28;20036;-82
2021/09/30 07:45:08;;;;;;;9.00;2.95;;;;;;;;;;4991494;28;20029;-85
2021/09/30 07:47:34;;;;;;;6.72;2.67;;;;;;;;;;5000511;28;20030;-85
2021/09/30 07:50:00;;;;;;;5.88;2.78;;;;;;;;;;5012220;28;20080;-82
2021/09/30 07:52:25;;;;;;;7.47;2.55;;;;;;;;;;5026780;28;20416;-84
2021/09/30 07:54:51;;;;;;;7.38;2.53;;;;;;;;;;5010481;28;20025;-85
2021/09/30 07:57:17;;;;;;;8.45;2.50;;;;;;;;;;5012958;28;20381;-82
2021/09/30 07:59:42;;;;;;;9.48;2.80;;;;;;;;;;5004304;28;20037;-82
2021/09/30 08:02:08;;;;;;;7.95;2.78;;;;;;;;;;5010827;28;20068;-85
2021/09/30 08:04:33;;;;;;;7.70;2.80;;;;;;;;;;5011375;28;20528;-82
2021/09/30 08:06:58;;;;;;;7.50;2.80;;;;;;;;;;4980689;28;20033;-82
2021/09/30 08:09:24;;;;;;;8.38;2.90;;;;;;;;;;4981296;28;20392;-84
2021/09/30 08:11:49;;;;;;;9.95;3.00;;;;;;;;;;5022369;28;20048;-82
2021/09/30 08:14:15;;;;;;;6.13;2.42;;;;;;;;;;4992433;28;20029;-84
2021/09/30 08:16:41;;;;;;;7.93;3.08;;;;;;;;;;5018025;28;20409;-85
2021/09/30 08:19:06;;;;;;;6.32;2.80;;;;;;;;;;5026111;28;20029;-82
2021/09/30 08:21:32;;;;;;;7.57;2.65;;;;;;;;;;5016189;28;20026;-82
2021/09/30 08:23:58;;;;;;;5.80;2.80;;;;;;;;;;5014304;28;20033;-81
2021/09/30 08:26:23;;;;;;;8.48;2.70;;;;;;;;;;5028044;28;20030;-82
2021/09/30 08:28:51;;;;;;;10.32;2.67;;;;;;;;;;4998861;28;20037;-82
2021/09/30 08:31:21;;;;;;;8.25;2.97;;;;;;;;;;5022312;28;20097;-84
2021/09/30 08:33:47;;;;;;;8.18;2.78;;;;;;;;;;5015745;28;20425;-85
2021/09/30 08:36:13;;;;;;;8.35;2.60;;;;;;;;;;4994757;28;20037;-82
2021/09/30 08:38:44;;;;;;;7.30;2.72;;;;;;;;;;5015842;28;20037;-83
2021/09/30 08:41:10;;;;;;;11.48;2.60;;;;;;;;;;5010189;28;20021;-84
2021/09/30 08:43:36;;;;;;;7.63;2.55;;;;;;;;;;5027791;28;20087;-82
2021/09/30 08:46:02;;;;;;;6.40;2.75;;;;;;;;;;5019666;28;20026;-82
2021/09/30 08:48:27;;;;;;;8.95;2.17;;;;;;;;;;5016983;28;20033;-82
2021/09/30 08:50:53;;;;;;;7.53;2.30;;;;;;;;;;4998872;28;20142;-84
2021/09/30 08:53:19;;;;;;;6.03;2.25;;;;;;;;;;5008251;28;20056;-84
2021/09/30 08:55:45;;;;;;;7.38;2.95;;;;;;;;;;5019452;28;20038;-84
2021/09/30 08:58:11;;;;;;;8.82;2.50;;;;;;;;;;5018319;28;20032;-83
2021/09/30 09:00:39;;;;;;;9.40;2.72;;;;;;;;;;4997070;28;20520;-84
2021/09/30 09:03:06;;;;;;;6.13;2.72;;;;;;;;;;5017377;28;20488;-82
2021/09/30 09:05:32;;;;;;;10.45;2.55;;;;;;;;;;5032349;28;20037;-85
2021/09/30 09:07:58;;;;;;;6.57;2.70;;;;;;;;;;5018841;28;20029;-84
2021/09/30 09:10:27;;;;;;;7.28;2.53;;;;;;;;;;5038418;28;20027;-81
2021/09/30 09:13:11;;;;;;;5.65;2.35;;;;;;;;;;5031988;28;20124;-84
2021/09/30 09:15:44;;;;;;;6.43;2.55;;;;;;;;;;5035585;28;20025;-81
2021/09/30 09:18:13;;;;;;;11.30;2.30;;;;;;;;;;5015114;28;20075;-82
2021/09/30 09:20:43;;;;;;;7.32;1.80;;;;;;;;;;5033121;28;20052;-81
2021/09/30 09:23:10;;;;;;;7.05;2.00;;;;;;;;;;5036647;28;20425;-82
2021/09/30 09:25:36;;;;;;;7.88;2.17;;;;;;;;;;5001692;28;20033;-84
2021/09/30 09:28:01;;;;;;;6.18;1.73;;;;;;;;;;5034448;28;20084;-83
2021/09/30 09:30:45;;;;;;;6.78;2.00;;;;;;;;;;5004160;28;20029;-81
2021/09/30 09:33:26;;;;;;;6.75;2.10;;;;;;;;;;5001707;28;20052;-84
2021/09/30 09:36:09;;;;;;;8.48;1.95;;;;;;;;;;5033850;28;20116;-82
2021/09/30 09:38:47;;;;;;;6.45;1.92;;;;;;;;;;5013349;28;20056;-84
2021/09/30 09:41:29;;;;;;;6.15;1.75;;;;;;;;;;5030664;28;20196;-81
2021/09/30 09:43:56;;;;;;;6.40;2.33;;;;;;;;;;5036183;28;20453;-83
2021/09/30 09:46:28;;;;;;;4.90;2.17;;;;;;;;;;5015133;28;20443;-81
2021/09/30 09:48:59;;;;;;;7.47;2.17;;;;;;;;;;5033772;28;20029;-84
2021/09/30 09:51:32;;;;;;;7.35;2.28;;;;;;;;;;5018970;28;20050;-84
2021/09/30 09:53:57;;;;;;;6.85;1.83;;;;;;;;;;5019645;28;20025;-81
2021/09/30 09:56:23;;;;;;;8.82;2.00;;;;;;;;;;5019158;28;20040;-81
2021/09/30 09:58:51;;;;;;;7.50;1.77;;;;;;;;;;5018995;28;20512;-84
2021/09/30 10:01:23;;;;;;;9.10;1.80;;;;;;;;;;5022122;28;20021;-83
2021/09/30 10:03:52;;;;;;;5.93;1.42;;;;;;;;;;5015709;28;20032;-81
2021/09/30 10:06:18;;;;;;;10.60;1.80;;;;;;;;;;5034916;28;20021;-82
2021/09/30 10:08:44;;;;;;;7.72;1.67;;;;;;;;;;5009436;28;20084;-84
2021/09/30 10:11:11;;;;;;;6.93;2.28;;;;;;;;;;5034655;28;20045;-81
2021/09/30 10:13:37;;;;;;;4.75;1.40;;;;;;;;;;5036582;28;20021;-83
2021/09/30 10:16:04;;;;;;;6.82;1.48;;;;;;;;;;5003247;28;20110;-84
2021/09/30 10:18:29;;;;;;;9.40;1.77;;;;;;;;;;4994791;28;20056;-81
2021/09/30 10:20:56;;;;;;;4.90;1.50;;;;;;;;;;4998914;28;20026;-81
2021/09/30 10:23:30;;;;;;;12.73;3.20;;;;;;;;;;5035199;28;20037;-83
2021/09/30 10:25:59;;;;;;;7.03;1.40;;;;;;;;;;5015855;28;20541;-81
2021/09/30 10:28:26;;;;;;;8.05;1.33;;;;;;;;;;5013618;28;20029;-84
2021/09/30 10:30:54;;;;;;;7.57;1.20;;;;;;;;;;5012781;28;20107;-83
2021/09/30 10:33:40;;;;;;;6.15;1.45;;;;;;;;;;5031636;28;20554;-81
2021/09/30 10:36:28;;;;;;;4.07;1.25;;;;;;;;;;5030844;28;20052;-83
2021/09/30 10:39:24;;;;;;;4.22;1.40;;;;;;;;;;5019377;28;20025;-81
2021/09/30 10:41:57;;;;;;;5.32;1.40;;;;;;;;;;5018700;28;20079;-81
2021/09/30 10:44:25;;;;;;;4.63;1.13;;;;;;;;;;5020763;28;20029;-82
2021/09/30 10:46:53;;;;;;;6.03;1.25;;;;;;;;;;5014511;28;20033;-84
2021/09/30 10:49:36;;;;;;;7.80;1.73;;;;;;;;;;5036386;28;20021;-83
2021/09/30 10:52:43;;;;;;;6.88;1.63;;;;;;;;;;5019646;28;20041;-83
2021/09/30 10:55:17;;;;;;;7.55;1.17;;;;;;;;;;5010838;28;20435;-84
2021/09/30 10:57:45;;;;;;;6.43;1.48;;;;;;;;;;5023161;28;20029;-81
2021/09/30 11:00:16;;;;;;;4.35;1.27;;;;;;;;;;5007723;28;20089;-82
2021/09/30 11:03:05;;;;;;;5.15;1.15;;;;;;;;;;5009341;28;20156;-82
2021/09/30 11:05:55;;;;;;;8.52;1.50;;;;;;;;;;5032156;28;20088;-81
2021/09/30 11:08:28;;;;;;;3.53;1.00;;;;;;;;;;5029498;28;20566;-83
2021/09/30 11:13:49;;;;;;;4.97;1.00;;;;;;;;;;5032885;28;20457;-81
2021/09/30 11:16:17;;;;;;;5.93;1.08;;;;;;;;;;5018630;28;20030;-83
2021/09/30 11:18:57;;;;;;;2.97;0.90;;;;;;;;;;5006332;28;20459;-84
2021/09/30 11:21:31;;;;;;;4.97;1.10;;;;;;;;;;5016119;28;20388;-80
2021/09/30 11:24:10;;;;;;;4.22;0.82;;;;;;;;;;5026532;28;20104;-83
2021/09/30 11:26:55;;;;;;;5.93;1.10;;;;;;;;;;5028148;28;20477;-81
2021/09/30 11:29:25;;;;;;;3.90;1.10;;;;;;;;;;5033720;28;20041;-84
2021/09/30 11:31:53;;;;;;;3.45;0.90;;;;;;;;;;5016955;28;20527;-83
2021/09/30 11:34:48;;;;;;;5.20;1.15;;;;;;;;;;5014475;28;20028;-83
2021/09/30 11:37:16;;;;;;;5.07;1.20;;;;;;;;;;5031613;28;20031;-80
2021/09/30 11:39:42;;;;;;;7.00;1.05;;;;;;;;;;5015053;28;20037;-81
2021/09/30 11:42:08;;;;;;;6.18;1.10;;;;;;;;;;5018227;28;20075;-81
2021/09/30 11:44:33;;;;;;;3.65;0.98;;;;;;;;;;5034050;28;20033;-81
2021/09/30 11:47:00;;;;;;;5.78;1.02;;;;;;;;;;5015593;28;20021;-80
2021/09/30 11:49:26;;;;;;;4.78;1.00;;;;;;;;;;5013917;28;20116;-83
2021/09/30 11:51:54;;;;;;;5.70;1.15;;;;;;;;;;5021082;28;20092;-81
2021/09/30 11:54:25;;;;;;;3.90;0.90;;;;;;;;;;5009061;28;20026;-83
2021/09/30 11:56:53;;;;;;;4.40;1.25;;;;;;;;;;5013688;28;20029;-81
2021/09/30 11:59:22;;;;;;;3.78;0.90;;;;;;;;;;4992721;28;20033;-80
2021/09/30 12:01:51;;;;;;;5.47;0.98;;;;;;;;;;5017836;28;20076;-82
2021/09/30 12:04:45;;;;;;;2.70;0.85;;;;;;;;;;5016709;28;20481;-81
2021/09/30 12:07:28;;;;;;;8.95;1.35;;;;;;;;;;5014517;28;20034;-83
2021/09/30 12:09:59;;;;;;;6.05;1.30;;;;;;;;;;5007333;28;20041;-83
2021/09/30 12:12:30;;;;;;;6.45;1.10;;;;;;;;;;4995456;28;20041;-83
2021/09/30 12:14:57;;;;;;;3.88;1.02;;;;;;;;;;5012399;28;20116;-81
2021/09/30 12:17:23;;;;;;;7.60;1.10;;;;;;;;;;4997485;28;20033;-80
2021/09/30 12:19:51;;;;;;;7.38;0.98;;;;;;;;;;5010387;28;20030;-82
2021/09/30 12:22:48;;;;;;;4.72;1.05;;;;;;;;;;5013116;28;20113;-82
2021/09/30 12:25:24;;;;;;;5.18;1.23;;;;;;;;;;5007284;28;20042;-82
2021/09/30 12:27:52;;;;;;;7.13;1.25;;;;;;;;;;5012747;28;20128;-80
2021/09/30 12:30:29;;;;;;;8.02;1.10;;;;;;;;;;5012259;28;20033;-82
2021/09/30 12:33:00;;;;;;;6.97;1.20;;;;;;;;;;5008439;28;20412;-81
2021/09/30 12:35:38;;;;;;;4.80;1.05;;;;;;;;;;5007398;28;20061;-80
2021/09/30 12:38:09;;;;;;;4.97;1.00;;;;;;;;;;5011625;28;20480;-82
2021/09/30 12:40:34;;;;;;;5.07;1.00;;;;;;;;;;5039154;28;20038;-81
2021/09/30 12:43:12;;;;;;;3.22;0.93;;;;;;;;;;5005732;28;20061;-81
2021/09/30 12:45:44;;;;;;;5.03;1.10;;;;;;;;;;5005068;28;20036;-82
2021/09/30 12:48:22;;;;;;;4.80;0.90;;;;;;;;;;5027439;28;20481;-83
2021/09/30 12:50:52;;;;;;;4.75;1.25;;;;;;;;;;5015169;28;20045;-81
2021/09/30 12:53:20;;;;;;;4.60;0.80;;;;;;;;;;5031247;28;20696;-82
2021/09/30 12:55:47;;;;;;;5.88;1.27;;;;;;;;;;5015786;28;20060;-83
2021/09/30 12:58:32;;;;;;;6.88;1.40;;;;;;;;;;5019620;28;20034;-81
2021/09/30 13:01:00;;;;;;;6.82;1.90;;;;;;;;;;5027510;28;20021;-84
2021/09/30 13:03:25;;;;;;;7.10;1.20;;;;;;;;;;5006004;28;20038;-81
2021/09/30 13:05:56;;;;;;;7.20;1.60;;;;;;;;;;5006288;28;20362;-81
2021/09/30 13:08:54;;;;;;;6.50;1.45;;;;;;;;;;5007975;28;20405;-81
2021/09/30 13:11:20;;;;;;;6.53;1.15;;;;;;;;;;4965889;28;20470;-84
2021/09/30 13:13:46;;;;;;;5.93;1.27;;;;;;;;;;5009362;28;20025;-82
2021/09/30 13:16:32;;;;;;;5.78;1.40;;;;;;;;;;4995401;28;20221;-83
2021/09/30 13:18:57;;;;;;;4.40;1.23;;;;;;;;;;5010604;28;20046;-81
2021/09/30 13:21:23;;;;;;;6.25;1.27;;;;;;;;;;5017061;28;20037;-81
2021/09/30 13:23:48;;;;;;;6.13;1.35;;;;;;;;;;5030102;28;20036;-83
2021/09/30 13:26:15;;;;;;;5.32;1.38;;;;;;;;;;4989322;28;20094;-80
2021/09/30 13:28:40;;;;;;;8.45;1.40;;;;;;;;;;5012019;28;20038;-81
2021/09/30 13:31:05;;;;;;;7.50;1.33;;;;;;;;;;4990086;28;20041;-81
2021/09/30 13:33:31;;;;;;;4.68;1.13;;;;;;;;;;5015998;28;20489;-80
2021/09/30 13:35:56;;;;;;;8.95;1.80;;;;;;;;;;4999944;28;20030;-80
2021/09/30 13:38:22;;;;;;;5.95;0.90;;;;;;;;;;4999265;28;20075;-84
2021/09/30 13:40:47;;;;;;;7.35;1.25;;;;;;;;;;5017485;28;20036;-84
2021/09/30 13:43:13;;;;;;;8.50;1.25;;;;;;;;;;5027297;28;20037;-84
2021/09/30 13:45:39;;;;;;;5.55;1.10;;;;;;;;;;5008738;28;20487;-84
2021/09/30 13:48:04;;;;;;;6.68;1.25;;;;;;;;;;5014770;28;20456;-82
2021/09/30 13:50:30;;;;;;;7.35;1.45;;;;;;;;;;4978862;28;20036;-82
2021/09/30 13:52:55;;;;;;;8.68;1.42;;;;;;;;;;5015413;28;20053;-81
2021/09/30 13:55:24;;;;;;;5.75;1.65;;;;;;;;;;5034199;28;20059;-84
2021/09/30 13:57:49;;;;;;;5.10;1.50;;;;;;;;;;5013598;28;20049;-81
2021/09/30 14:00:17;;;;;;;8.85;1.67;;;;;;;;;;4995999;28;20034;-81
2021/09/30 14:02:47;;;;;;;10.27;2.00;;;;;;;;;;5014693;28;20037;-81
2021/09/30 14:05:17;;;;;;;7.47;1.40;;;;;;;;;;5031407;28;20029;-81
2021/09/30 14:07:43;;;;;;;7.97;1.67;;;;;;;;;;4992854;28;20037;-84
2021/09/30 14:10:15;;;;;;;9.40;1.83;;;;;;;;;;5010631;28;20381;-82
2021/09/30 14:12:43;;;;;;;7.57;1.50;;;;;;;;;;5021575;28;20529;-84
2021/09/30 14:15:09;;;;;;;6.03;1.65;;;;;;;;;;5009368;28;20040;-85
2021/09/30 14:17:35;;;;;;;8.52;1.80;;;;;;;;;;5010472;28;20033;-82
2021/09/30 14:20:03;;;;;;;5.50;1.60;;;;;;;;;;4995051;28;20031;-83
2021/09/30 14:22:29;;;;;;;7.75;2.05;;;;;;;;;;5003369;28;20877;-81
2021/09/30 14:24:55;;;;;;;9.93;2.08;;;;;;;;;;4994706;28;20120;-80
2021/09/30 14:27:21;;;;;;;8.18;1.60;;;;;;;;;;5018687;28;20292;-82
2021/09/30 14:29:47;;;;;;;9.18;2.17;;;;;;;;;;5021577;28;20044;-85
2021/09/30 14:32:13;;;;;;;8.20;1.75;;;;;;;;;;5010011;28;20444;-81
2021/09/30 14:34:40;;;;;;;7.18;1.60;;;;;;;;;;5026036;28;20127;-81
2021/09/30 14:37:06;;;;;;;4.72;1.92;;;;;;;;;;5011201;28;20060;-82
2021/09/30 14:39:31;;;;;;;8.48;1.70;;;;;;;;;;5027582;28;20485;-84
2021/09/30 14:41:57;;;;;;;7.57;1.90;;;;;;;;;;5011068;28;20046;-84
2021/09/30 14:44:24;;;;;;;7.18;1.58;;;;;;;;;;4999235;28;22340;-81
2021/09/30 14:46:51;;;;;;;7.15;2.53;;;;;;;;;;5034246;28;20029;-84
2021/09/30 14:49:17;;;;;;;7.40;1.30;;;;;;;;;;5010129;28;20056;-84
2021/09/30 14:51:42;;;;;;;5.70;1.20;;;;;;;;;;4996407;28;20560;-82
2021/09/30 14:54:08;;;;;;;7.70;1.77;;;;;;;;;;5010077;28;20116;-80
2021/09/30 14:56:33;;;;;;;5.45;1.38;;;;;;;;;;5007615;28;20382;-82
2021/09/30 14:58:58;;;;;;;5.82;1.73;;;;;;;;;;5007109;28;20040;-82
2021/09/30 15:01:24;;;;;;;6.68;1.92;;;;;;;;;;4996295;28;20119;-82
2021/09/30 15:03:49;;;;;;;6.82;1.33;;;;;;;;;;4996648;28;20116;-84
2021/09/30 15:06:15;;;;;;;4.05;1.17;;;;;;;;;;4987556;28;20056;-84
2021/09/30 15:08:40;;;;;;;6.03;1.20;;;;;;;;;;5006154;28;20029;-84
2021/09/30 15:11:06;;;;;;;5.05;1.33;;;;;;;;;;4998983;28;20033;-83
2021/09/30 15:13:31;;;;;;;6.07;1.50;;;;;;;;;;5009009;28;20037;-84
2021/09/30 15:15:59;;;;;;;4.53;1.23;;;;;;;;;;4997114;28;20109;-81
2021/09/30 15:18:39;;;;;;;3.97;1.20;;;;;;;;;;5015248;28;20504;-83
2021/09/30 15:23:51;;;;;;;5.03;1.30;;;;;;;;;;5012334;28;20119;-81
2021/09/30 15:26:17;;;;;;;7.55;1.67;;;;;;;;;;5029793;28;20037;-84
2021/09/30 15:28:44;;;;;;;6.57;1.60;;;;;;;;;;4997396;28;20064;-81
2021/09/30 15:31:09;;;;;;;7.25;2.00;;;;;;;;;;4995248;28;20041;-82
2021/09/30 15:33:35;;;;;;;6.75;1.58;;;;;;;;;;5012406;28;20104;-81
2021/09/30 15:36:00;;;;;;;7.80;1.50;;;;;;;;;;5011444;28;20052;-82
2021/09/30 15:38:26;;;;;;;6.97;1.38;;;;;;;;;;5006635;28;20059;-81
2021/09/30 15:40:55;;;;;;;5.85;1.25;;;;;;;;;;5015319;28;20374;-81
2021/09/30 15:43:22;;;;;;;5.53;1.40;;;;;;;;;;5018754;28;20064;-84
2021/09/30 15:45:48;;;;;;;8.43;1.70;;;;;;;;;;4973647;28;20159;-82
2021/09/30 15:48:13;;;;;;;5.30;1.77;;;;;;;;;;4995702;28;20089;-84
2021/09/30 15:50:38;;;;;;;5.88;1.55;;;;;;;;;;4995535;28;20042;-81
2021/09/30 15:53:04;;;;;;;7.60;1.70;;;;;;;;;;5008874;28;20047;-81
2021/09/30 15:55:30;;;;;;;7.50;1.50;;;;;;;;;;5037817;28;20104;-84
2021/09/30 15:57:55;;;;;;;5.18;1.60;;;;;;;;;;4996753;28;20136;-81
2021/09/30 16:00:24;;;;;;;6.68;1.35;;;;;;;;;;5029336;28;20045;-83
2021/09/30 16:02:49;;;;;;;7.18;1.65;;;;;;;;;;5024918;28;20044;-80
2021/09/30 16:05:15;;;;;;;10.15;1.33;;;;;;;;;;4994986;28;20041;-82
2021/09/30 16:07:40;;;;;;;7.30;1.40;;;;;;;;;;5016205;28;20021;-81
2021/09/30 16:10:06;;;;;;;4.65;1.60;;;;;;;;;;5045254;28;20041;-84
2021/09/30 16:12:31;;;;;;;6.95;1.30;;;;;;;;;;4992435;28;20021;-84
2021/09/30 16:14:57;;;;;;;6.50;1.60;;;;;;;;;;5000919;28;20030;-80
2021/09/30 16:17:22;;;;;;;4.03;1.25;;;;;;;;;;5000245;28;20090;-80
2021/09/30 16:19:51;;;;;;;4.28;1.42;;;;;;;;;;5019788;28;20037;-81
2021/09/30 16:22:17;;;;;;;6.40;1.40;;;;;;;;;;5003241;28;20030;-81
2021/09/30 16:24:42;;;;;;;6.75;2.03;;;;;;;;;;5032966;28;20048;-80
2021/09/30 16:27:08;;;;;;;7.43;1.30;;;;;;;;;;5013863;28;20033;-84
2021/09/30 16:29:33;;;;;;;5.85;1.30;;;;;;;;;;5006201;28;20025;-83
2021/09/30 16:31:59;;;;;;;5.72;1.40;;;;;;;;;;5001039;28;20571;-81
2021/09/30 16:34:24;;;;;;;8.95;1.90;;;;;;;;;;5002900;28;20125;-81
2021/09/30 16:36:50;;;;;;;4.82;1.27;;;;;;;;;;5034145;28;20030;-81
2021/09/30 16:39:15;;;;;;;7.00;1.40;;;;;;;;;;5044566;28;20052;-81
2021/09/30 16:41:41;;;;;;;6.30;1.38;;;;;;;;;;5032722;28;20507;-82
2021/09/30 16:44:06;;;;;;;7.95;1.92;;;;;;;;;;5001486;28;20116;-84
2021/09/30 16:46:32;;;;;;;5.63;1.40;;;;;;;;;;5035208;28;20022;-81
2021/09/30 16:49:01;;;;;;;7.30;1.10;;;;;;;;;;5022636;28;20029;-82
2021/09/30 16:51:27;;;;;;;7.70;1.50;;;;;;;;;;5052609;28;20056;-84
2021/09/30 16:53:53;;;;;;;4.20;1.05;;;;;;;;;;5020791;28;20026;-83
2021/09/30 16:56:19;;;;;;;2.88;1.35;;;;;;;;;;5015834;28;20397;-81
2021/09/30 16:58:45;;;;;;;8.25;1.30;;;;;;;;;;5032499;28;20048;-82
2021/09/30 17:01:13;;;;;;;3.60;0.90;;;;;;;;;;4991930;28;20029;-81
2021/09/30 17:03:39;;;;;;;8.35;1.45;;;;;;;;;;5032765;28;20076;-80
2021/09/30 17:06:04;;;;;;;6.78;1.20;;;;;;;;;;5014360;28;20033;-80
2021/09/30 17:08:30;;;;;;;5.32;1.10;;;;;;;;;;5008510;28;20083;-81
2021/09/30 17:10:58;;;;;;;4.45;1.15;;;;;;;;;;5019479;28;20377;-83
2021/09/30 17:13:23;;;;;;;3.90;1.48;;;;;;;;;;5020527;28;20044;-81
2021/09/30 17:15:50;;;;;;;8.02;1.95;;;;;;;;;;5004511;28;20412;-80
2021/09/30 17:18:18;;;;;;;6.75;1.90;;;;;;;;;;5025709;28;20389;-82
2021/09/30 17:20:43;;;;;;;7.30;2.00;;;;;;;;;;5020298;28;20032;-81
2021/09/30 17:23:09;;;;;;;6.50;2.58;;;;;;;;;;5005507;28;20033;-82
2021/09/30 17:25:34;;;;;;;5.10;2.88;;;;;;;;;;5019565;28;20083;-84
2021/09/30 17:28:00;;;;;;;5.70;1.80;;;;;;;;;;5041241;28;20033;-81
2021/09/30 17:30:25;;;;;;;20.92;10.10;;;;;;;;;;5008893;28;20033;-81
2021/09/30 17:32:51;;;;;;;10.32;3.92;;;;;;;;;;5001941;28;20432;-82
2021/09/30 17:35:17;;;;;;;6.03;2.33;;;;;;;;;;4983621;28;20033;-82
2021/09/30 17:37:43;;;;;;;5.22;2.75;;;;;;;;;;5017100;28;20415;-81